地図

経路データ

SID SEASON NUMBER BASIN SUBBASIN NAME ISO_TIME NATURE LAT LON WMO_WIND WMO_PRES WMO_AGENCY TRACK_TYPE DIST2LAND LANDFALL IFLAG USA_AGENCY USA_ATCF_ID USA_LAT USA_LON USA_RECORD USA_STATUS USA_WIND USA_PRES USA_SSHS USA_R34_NE USA_R34_SE USA_R34_SW USA_R34_NW USA_R50_NE USA_R50_SE USA_R50_SW USA_R50_NW USA_R64_NE USA_R64_SE USA_R64_SW USA_R64_NW USA_POCI USA_ROCI USA_RMW USA_EYE TOKYO_LAT TOKYO_LON TOKYO_GRADE TOKYO_WIND TOKYO_PRES TOKYO_R50_DIR TOKYO_R50_LONG TOKYO_R50_SHORT TOKYO_R30_DIR TOKYO_R30_LONG TOKYO_R30_SHORT TOKYO_LAND CMA_LAT CMA_LON CMA_CAT CMA_WIND CMA_PRES HKO_LAT HKO_LON HKO_CAT HKO_WIND HKO_PRES NEWDELHI_LAT NEWDELHI_LON NEWDELHI_GRADE NEWDELHI_WIND NEWDELHI_PRES NEWDELHI_CI NEWDELHI_DP NEWDELHI_POCI REUNION_LAT REUNION_LON REUNION_TYPE REUNION_WIND REUNION_PRES REUNION_TNUM REUNION_CI REUNION_RMW REUNION_R34_NE REUNION_R34_SE REUNION_R34_SW REUNION_R34_NW REUNION_R50_NE REUNION_R50_SE REUNION_R50_SW REUNION_R50_NW REUNION_R64_NE REUNION_R64_SE REUNION_R64_SW REUNION_R64_NW BOM_LAT BOM_LON BOM_TYPE BOM_WIND BOM_PRES BOM_TNUM BOM_CI BOM_RMW BOM_R34_NE BOM_R34_SE BOM_R34_SW BOM_R34_NW BOM_R50_NE BOM_R50_SE BOM_R50_SW BOM_R50_NW BOM_R64_NE BOM_R64_SE BOM_R64_SW BOM_R64_NW BOM_ROCI BOM_POCI BOM_EYE BOM_POS_METHOD BOM_PRES_METHOD NADI_LAT NADI_LON NADI_CAT NADI_WIND NADI_PRES WELLINGTON_LAT WELLINGTON_LON WELLINGTON_WIND WELLINGTON_PRES DS824_LAT DS824_LON DS824_STAGE DS824_WIND DS824_PRES TD9636_LAT TD9636_LON TD9636_STAGE TD9636_WIND TD9636_PRES TD9635_LAT TD9635_LON TD9635_WIND TD9635_PRES TD9635_ROCI NEUMANN_LAT NEUMANN_LON NEUMANN_CLASS NEUMANN_WIND NEUMANN_PRES MLC_LAT MLC_LON MLC_CLASS MLC_WIND MLC_PRES USA_GUST BOM_GUST BOM_GUST_PER REUNION_GUST REUNION_GUST_PER USA_SEAHGT USA_SEARAD_NE USA_SEARAD_SE USA_SEARAD_SW USA_SEARAD_NW STORM_SPEED STORM_DIR
1954309S12067 1955 89 SI MM NOT_NAMED 1954-11-04 18:00:00 TS -12.0000 67.1000 main 1352 1290 O________OO___ jtwc_sh SH031955 -12.0000 67.1000 -1 -12.0000 67.1000 TC -12.0000 67.1000 7 15 262
1954309S12067 1955 89 SI MM NOT_NAMED 1954-11-04 21:00:00 TS -12.1008 66.3474 main 1282 1221 P________PP___ SH031955 -12.0879 66.3475 -1 -12.0879 66.3475 TC -12.1266 66.3473 7 15 262
1954309S12067 1955 89 SI MM NOT_NAMED 1954-11-05 00:00:00 TS -12.2172 65.6018 main 1221 1154 O________OP___ jtwc_sh SH031955 -12.2000 65.6000 -1 -12.2000 65.6000 TC -12.2517 65.6053 7 15 260
1954309S12067 1955 89 SI MM NOT_NAMED 1954-11-05 03:00:00 TS -12.3586 64.8753 main 1154 1097 P________PP___ SH031955 -12.3499 64.8701 -1 -12.3499 64.8701 TC -12.3759 64.8857 7 14 258
1954309S12067 1955 89 SI MM NOT_NAMED 1954-11-05 06:00:00 TS -12.5000 64.2000 main 1097 1048 O________OO___ jtwc_sh SH031955 -12.5000 64.2000 -1 -12.5000 64.2000 TC 25 -12.5000 64.2000 1 13 259
1954309S12067 1955 89 SI MM NOT_NAMED 1954-11-05 09:00:00 TS -12.6081 63.5957 main 1048 1008 P________PP___ SH031955 -12.5998 63.6124 -1 -12.5998 63.6124 TC 25 -12.6247 63.5623 1 11 259
1954309S12067 1955 89 SI MM NOT_NAMED 1954-11-05 12:00:00 TS -12.7166 63.0659 main 1008 960 O________OP___ jtwc_sh SH031955 -12.7000 63.1000 -1 -12.7000 63.1000 TC 25 -12.7497 62.9977 1 10 256
1954309S12067 1955 89 SI MM NOT_NAMED 1954-11-05 15:00:00 TS -12.8583 62.5615 main 960 927 P________PP___ SH031955 -12.8500 62.5751 -1 -12.8500 62.5751 TC 25 -12.8749 62.5343 1 9 251
1954309S12067 1955 89 SI MM NOT_NAMED 1954-11-05 18:00:00 TS -13.0000 62.2000 main 927 912 O________OO___ jtwc_sh SH031955 -13.0000 62.2000 -1 -13.0000 62.2000 TC 25 -13.0000 62.2000 1 5 240
1954309S12067 1955 89 SI MM NOT_NAMED 1954-11-05 21:00:00 TS -13.1132 62.1018 main 912 903 P________PP___ SH031955 -13.0999 62.0899 -1 -13.0999 62.0899 TC 25 -13.1400 62.1257 1 2 200
1954309S12067 1955 89 SI MM NOT_NAMED 1954-11-06 00:00:00 TS -13.2260 62.1198 main 903 889 O________OP___ jtwc_sh SH031955 -13.2000 62.1000 -1 -13.2000 62.1000 TC 25 -13.2781 62.1593 1 3 167
1954309S12067 1955 89 SI MM NOT_NAMED 1954-11-06 03:00:00 TS -13.3722 62.1527 main 889 868 P________PP___ SH031955 -13.3572 62.1474 -1 -13.3572 62.1474 TC 25 -13.4022 62.1633 1 3 203
1954309S12067 1955 89 SI MM NOT_NAMED 1954-11-06 06:00:00 TS -13.5000 62.0000 main 868 827 O________OO___ jtwc_sh SH031955 -13.5000 62.0000 -1 -13.5000 62.0000 TC 25 -13.5000 62.0000 1 8 255
1954309S12067 1955 89 SI MM NOT_NAMED 1954-11-06 09:00:00 TS -13.5698 61.4084 main 827 794 P________PP___ SH031955 -13.5728 61.3975 -1 -13.5728 61.3975 TC 25 -13.5638 61.4302 1 13 266
1954309S12067 1955 89 SI MM NOT_NAMED 1954-11-06 12:00:00 TS -13.5993 60.6300 main 790 764 O________OP___ jtwc_sh SH031955 -13.6000 60.6000 -1 -13.6000 60.6000 TC 25 -13.5979 60.6901 1 15 269
1954309S12067 1955 89 SI MM NOT_NAMED 1954-11-06 15:00:00 TS -13.6077 59.8666 main 764 744 P________PP___ SH031955 -13.6077 59.8475 -1 -13.6077 59.8475 TC 25 -13.6077 59.9049 1 14 270
1954309S12067 1955 89 SI MM NOT_NAMED 1954-11-06 18:00:00 TS -13.6000 59.2000 main 744 736 O________OO___ jtwc_sh SH031955 -13.6000 59.2000 -1 -13.6000 59.2000 TC 25 -13.6000 59.2000 1 10 270
1954309S12067 1955 89 SI MM NOT_NAMED 1954-11-06 21:00:00 TS -13.6048 58.7883 main 736 732 P________PP___ SH031955 -13.6072 58.7976 -1 -13.6072 58.7976 TC 25 -13.6002 58.7698 1 7 270
1954309S12067 1955 89 SI MM NOT_NAMED 1954-11-07 00:00:00 TS -13.5953 58.4776 main 732 729 O________OP___ jtwc_sh SH031955 -13.6000 58.5000 -1 -13.6000 58.5000 TC 25 -13.5858 58.4327 1 6 274
1954309S12067 1955 89 SI MM NOT_NAMED 1954-11-07 03:00:00 TS -13.5611 58.1531 main 729 728 P________PP___ SH031955 -13.5649 58.1650 -1 -13.5649 58.1650 TC 25 -13.5535 58.1293 1 7 278
1954309S12067 1955 89 SI MM NOT_NAMED 1954-11-07 06:00:00 TS -13.5000 57.8000 main 738 738 O________OO___ jtwc_sh SH031955 -13.5000 57.8000 -1 -13.5000 57.8000 TC 25 -13.5000 57.8000 1 8 281
1954309S12067 1955 89 SI MM NOT_NAMED 1954-11-07 09:00:00 TS -13.4174 57.3795 main 749 722 P________PP___ SH031955 -13.4075 57.3725 -1 -13.4075 57.3725 TC 25 -13.4374 57.3936 1 9 282
1954309S12067 1955 89 SI MM NOT_NAMED 1954-11-07 12:00:00 TS -13.3172 56.9159 main 722 684 O________OP___ jtwc_sh SH031955 -13.3000 56.9000 -1 -13.3000 56.9000 TC 25 -13.3517 56.9478 1 9 282
1954309S12067 1955 89 SI MM NOT_NAMED 1954-11-07 15:00:00 TS -13.2183 56.4328 main 674 628 P________PP___ SH031955 -13.2074 56.4226 -1 -13.2074 56.4226 TC 25 -13.2403 56.4531 1 10 282
1954309S12067 1955 89 SI MM NOT_NAMED 1954-11-07 18:00:00 TS -13.1000 55.9000 main 628 580 O________OO___ jtwc_sh SH031955 -13.1000 55.9000 -1 -13.1000 55.9000 TC 25 -13.1000 55.9000 1 11 284
1954309S12067 1955 89 SI MM NOT_NAMED 1954-11-07 21:00:00 TS -12.9580 55.3196 main 569 510 P________PP___ SH031955 -12.9723 55.3376 -1 -12.9723 55.3376 TC 25 -12.9295 55.2835 1 12 285
1954309S12067 1955 89 SI MM NOT_NAMED 1954-11-08 00:00:00 TS -12.7781 54.6721 main 510 442 O________OP___ jtwc_sh SH031955 -12.8000 54.7000 -1 -12.8000 54.7000 TC 25 -12.7344 54.6164 1 14 287
1954309S12067 1955 89 SI MM NOT_NAMED 1954-11-08 03:00:00 TS -12.5527 53.9551 main 442 366 P________PP___ SH031955 -12.5680 53.9746 -1 -12.5680 53.9746 TC 25 -12.5220 53.9161 1 15 288
1954309S12067 1955 89 SI MM NOT_NAMED 1954-11-08 06:00:00 TS -12.3000 53.2000 main 366 O________OO___ jtwc_sh SH031955 -12.3000 53.2000 -1 -12.3000 53.2000 TC 25 -12.3000 53.2000 1 16 289

IBTrACS Databaseについて

本データベースは、米国NOAAが公開する1842年以降の世界の熱帯低気圧のベストトラックデータアーカイブInternational Best Track Archive for Climate Stewardship (IBTrACS)を、ウェブで閲覧しやすい形式に変換したものです。

最終更新日:2021-12-06